• Join FlightAware (Why Join?)
  • Login
  • US Flag 
Rudolph Flight #1: Scheduled 
09:16PM EST


 

Airport Tracker/Info


-or-


 

Live Flight TrackerFlight Track Log ✈ LBQ652 ✈ 24-Apr-2013 ✈ KDPA - KIXD

Flight Track Log - Related Links

Times and Time Zones

All times are in EDT time to prevent confusion due to time zone crossing. See the LBQ652 flight status page for this flight to view local times or setup timezone preferences in your user account.

Time Position Orientation Groundspeed Altitude Reporting Facility
EDT Latitude Longitude Course Direction KTS MPH feet Rate Location/Type
03:56AM 41.9225 -88.2775 286° West 176 203 2,400  Level Chicago Center
03:57AM 41.8678 -88.3308 216° Southwest 256 295 4,300 2,220 Climbing Chicago Center
03:58AM 41.8378 -88.4044 241° Southwest 248 285 6,900 2,400 Climbing Chicago Center
03:59AM 41.8292 -88.4950 263° West 246 283 9,200 2,340 Climbing Chicago Center
04:00AM 41.8211 -88.5983 264° West 238 274 11,700 2,220 Climbing Chicago Center
04:01AM 41.8167 -88.6861 266° West 237 273 13,700 1,800 Climbing Chicago Center
04:02AM 41.7889 -88.7592 243° Southwest 231 266 15,400 1,680 Climbing Chicago Center
04:03AM 41.7500 -88.8294 233° Southwest 235 270 17,200 1,920 Climbing Chicago Center
04:04AM 41.7128 -88.8958 233° Southwest 227 261 19,300 1,740 Climbing Chicago Center
04:05AM 41.6767 -88.9647 235° Southwest 227 261 20,700 1,380 Climbing Chicago Center
04:06AM 41.6386 -89.0339 234° Southwest 233 268 22,200 1,440 Climbing Chicago Center
04:07AM 41.5994 -89.1014 232° Southwest 232 267 23,700 1,440 Climbing Chicago Center
04:08AM 41.5653 -89.1756 238° Southwest 235 270 25,100 1,320 Climbing Chicago Center
04:10AM 41.5336 -89.2475 240° Southwest 231 266 26,400 1,200 Climbing Chicago Center
04:11AM 41.5006 -89.3222 239° Southwest 231 266 27,600 1,260 Climbing Chicago Center
04:12AM 41.4692 -89.3947 240° Southwest 230 265 29,000 660 Climbing Chicago Center
04:13AM 41.4367 -89.4722 241° Southwest 236 272 29,000  Level Chicago Center
04:14AM 41.3994 -89.5556 239° Southwest 255 293 29,000  Level Chicago Center
04:15AM 41.3622 -89.6414 240° Southwest 265 305 29,000  Level Chicago Center
04:16AM 41.3219 -89.7289 239° Southwest 274 315 29,000  Level Chicago Center
04:17AM 41.2842 -89.8172 240° Southwest 276 318 29,000  Level Chicago Center
04:18AM 41.2447 -89.9044 239° Southwest 276 318 29,000  Level Chicago Center
04:19AM 41.2050 -89.9931 239° Southwest 279 321 29,000  Level Chicago Center
04:20AM 41.1672 -90.0806 240° Southwest 276 318 29,000  Level Chicago Center
04:21AM 41.1267 -90.1686 239° Southwest 279 321 29,000  Level Chicago Center
04:22AM 41.0886 -90.2567 240° Southwest 278 320 29,000  Level Chicago Center
04:23AM 41.0472 -90.3458 238° Southwest 283 326 29,000  Level Chicago Center
04:24AM 41.0078 -90.4342 239° Southwest 280 322 29,000  Level Chicago Center
04:25AM 40.9678 -90.5203 238° Southwest 278 320 29,000 60 Level Chicago Center
04:26AM 40.9283 -90.6069 239° Southwest 276 318 29,200 420 Climbing Chicago Center
04:27AM 40.8889 -90.6947 239° Southwest 277 319 29,900 360 Climbing Chicago Center
04:28AM 40.8431 -90.7944 239° Southwest 267 307 30,000  Climbing Chicago Center
04:29AM 40.8028 -90.8819 239° Southwest 276 318 30,000  Level Chicago Center
04:30AM 40.7622 -90.9683 238° Southwest 277 319 30,000  Level Chicago Center
04:31AM 40.7228 -91.0564 239° Southwest 279 321 30,000  Level Chicago Center
04:32AM 40.6814 -91.1433 238° Southwest 279 321 30,000  Level Chicago Center
04:33AM 40.6414 -91.2306 239° Southwest 278 320 30,000  Level Chicago Center
04:34AM 40.6064 -91.3064 239° Southwest 278 320 30,000  Level Chicago Center
04:35AM 40.5661 -91.3928 238° Southwest 278 320 30,000  Level Chicago Center
04:36AM 40.5247 -91.4778 237° Southwest 278 320 30,000  Level Chicago Center
04:37AM 40.4858 -91.5650 240° Southwest 279 321 30,000  Level Chicago Center
04:38AM 40.4367 -91.6678 238° Southwest 279 321 30,000  Level Chicago Center
04:38AM 40.4269 -91.6847 233° Southwest 279 321 30,000  Level Kansas City Center
04:39AM 40.3864 -91.7706 238° Southwest 279 321 30,000  Level Kansas City Center
04:40AM 40.3464 -91.8561 238° Southwest 277 319 30,000  Level Kansas City Center
04:41AM 40.3053 -91.9422 238° Southwest 279 321 30,000  Level Kansas City Center
04:42AM 40.2647 -92.0292 239° Southwest 280 322 30,000  Level Kansas City Center
04:43AM 40.2228 -92.1161 238° Southwest 282 325 30,000  Level Kansas City Center
04:44AM 40.1814 -92.2031 238° Southwest 282 325 30,000  Level Kansas City Center
04:45AM 40.1392 -92.2911 238° Southwest 284 327 30,000  Level Kansas City Center
04:46AM 40.0961 -92.3781 237° Southwest 281 323 30,000  Level Kansas City Center
04:47AM 40.0558 -92.4636 238° Southwest 280 322 30,000  Level Kansas City Center
04:48AM 40.0136 -92.5483 237° Southwest 279 321 30,000  Level Kansas City Center
04:49AM 39.9725 -92.6333 238° Southwest 277 319 30,000  Level Kansas City Center
04:50AM 39.9314 -92.7186 238° Southwest 279 321 30,000  Level Kansas City Center
04:51AM 39.8894 -92.8017 237° Southwest 276 318 30,000  Level Kansas City Center
04:52AM 39.8478 -92.8853 237° Southwest 276 318 30,000  Level Kansas City Center
04:53AM 39.8069 -92.9700 238° Southwest 278 320 30,000  Level Kansas City Center
04:54AM 39.7647 -93.0528 236° Southwest 276 318 30,000  Level Kansas City Center
04:55AM 39.7239 -93.1392 238° Southwest 279 321 30,000 -300 Level Kansas City Center
04:56AM 39.6814 -93.2233 237° Southwest 279 321 29,400 -780 Descending Kansas City Center
04:57AM 39.6372 -93.3122 237° Southwest 290 334 28,500 -960 Descending Kansas City Center
04:58AM 39.5919 -93.4028 237° Southwest 299 344 27,500 -1,020 Descending Kansas City Center
04:59AM 39.5458 -93.4936 237° Southwest 301 346 26,500 -1,080 Descending Kansas City Center
05:00AM 39.4917 -93.6036 237° Southwest 300 345 25,300 -1,140 Descending Kansas City Center
05:01AM 39.4467 -93.6947 237° Southwest 301 346 24,300 -960 Descending Kansas City Center
05:02AM 39.4039 -93.7767 236° Southwest 281 323 23,400 -960 Descending Kansas City Center
05:03AM 39.3650 -93.8539 237° Southwest 271 312 22,400 -960 Descending Kansas City Center
05:04AM 39.3233 -93.9392 238° Southwest 289 333 21,500 -1,080 Descending Kansas City Center
05:05AM 39.2703 -94.0419 236° Southwest 306 352 20,300 -1,140 Descending Kansas City Center
05:06AM 39.2247 -94.1306 236° Southwest 308 354 19,300 -1,140 Descending Kansas City Center
05:07AM 39.1794 -94.2197 237° Southwest 311 358 18,100 -1,980 Descending Kansas City Center
05:08AM 39.1275 -94.3197 236° Southwest 301 346 15,300 -2,700 Descending Kansas City Center
05:09AM 39.0853 -94.4033 237° Southwest 293 337 12,800 -2,580 Descending Kansas City Center
05:10AM 39.0414 -94.4875 236° Southwest 296 341 10,300 -2,460 Descending Kansas City Center
05:11AM 38.9994 -94.5681 236° Southwest 287 330 7,900 -2,400 Descending Kansas City Center
05:12AM 38.9594 -94.6464 237° Southwest 274 315 5,500 -2,340 Descending Kansas City Center